sensor_id;sensor_type;location;lat;lon;timestamp;pressure;altitude;pressure_sealevel;temperature;humidity
29385;BME280;16367;48.736;9.218;2023-04-03T00:00:57;-23259.22;;;2.87;96.87
29385;BME280;16367;48.736;9.218;2023-04-03T00:03:00;-23259.84;;;2.89;96.64
29385;BME280;16367;48.736;9.218;2023-04-03T00:05:03;-23259.53;;;2.88;96.61
29385;BME280;16367;48.736;9.218;2023-04-03T00:07:07;-23264.63;;;3.04;95.22
29385;BME280;16367;48.736;9.218;2023-04-03T00:09:10;-23257.78;;;2.82;96.40
29385;BME280;16367;48.736;9.218;2023-04-03T00:11:12;-23260.00;;;2.89;96.54
29385;BME280;16367;48.736;9.218;2023-04-03T00:13:15;-23256.00;;;2.77;96.09
29385;BME280;16367;48.736;9.218;2023-04-03T00:15:18;-23255.38;;;2.75;96.44
29385;BME280;16367;48.736;9.218;2023-04-03T00:17:21;-23259.84;;;2.89;95.86
29385;BME280;16367;48.736;9.218;2023-04-03T00:19:23;-23260.81;;;2.92;96.04
29385;BME280;16367;48.736;9.218;2023-04-03T00:21:26;-23258.09;;;2.83;97.29
29385;BME280;16367;48.736;9.218;2023-04-03T00:23:30;-23252.66;;;2.66;96.64
29385;BME280;16367;48.736;9.218;2023-04-03T00:25:33;-23253.47;;;2.69;96.71
29385;BME280;16367;48.736;9.218;2023-04-03T00:27:36;-23256.19;;;2.77;97.14
29385;BME280;16367;48.736;9.218;2023-04-03T00:29:39;-23258.09;;;2.83;96.40
29385;BME280;16367;48.736;9.218;2023-04-03T00:31:41;-23252.50;;;2.66;96.60
29385;BME280;16367;48.736;9.218;2023-04-03T00:33:44;-23250.28;;;2.59;96.18
29385;BME280;16367;48.736;9.218;2023-04-03T00:35:47;-23254.44;;;2.72;96.63
29385;BME280;16367;48.736;9.218;2023-04-03T00:37:51;-23250.59;;;2.60;96.75
29385;BME280;16367;48.736;9.218;2023-04-03T00:39:55;-23254.44;;;2.72;97.23
29385;BME280;16367;48.736;9.218;2023-04-03T00:41:58;-23252.19;;;2.65;96.57
29385;BME280;16367;48.736;9.218;2023-04-03T00:44:00;-23252.66;;;2.66;97.01
29385;BME280;16367;48.736;9.218;2023-04-03T00:46:03;-23252.03;;;2.64;97.84
29385;BME280;16367;48.736;9.218;2023-04-03T00:48:08;-23249.97;;;2.58;97.82
29385;BME280;16367;48.736;9.218;2023-04-03T00:50:12;-23253.47;;;2.69;96.71
29385;BME280;16367;48.736;9.218;2023-04-03T00:52:17;-23253.16;;;2.68;97.13
29385;BME280;16367;48.736;9.218;2023-04-03T00:54:21;-23250.44;;;2.59;96.89
29385;BME280;16367;48.736;9.218;2023-04-03T00:56:26;-23250.59;;;2.60;97.16
29385;BME280;16367;48.736;9.218;2023-04-03T00:58:34;-23253.31;;;2.68;97.14
29385;BME280;16367;48.736;9.218;2023-04-03T01:00:42;-23254.91;;;2.73;96.62
29385;BME280;16367;48.736;9.218;2023-04-03T01:02:47;-23253.47;;;2.69;96.49
29385;BME280;16367;48.736;9.218;2023-04-03T01:04:50;-23250.75;;;2.60;96.18
29385;BME280;16367;48.736;9.218;2023-04-03T01:06:52;-23248.22;;;2.52;97.30
29385;BME280;16367;48.736;9.218;2023-04-03T01:08:57;-23247.72;;;2.51;97.08
29385;BME280;16367;48.736;9.218;2023-04-03T01:11:00;-23248.69;;;2.54;97.76
29385;BME280;16367;48.736;9.218;2023-04-03T01:13:17;-23249.63;;;2.57;97.07
29385;BME280;16367;48.736;9.218;2023-04-03T01:15:22;-23251.41;;;2.62;97.59
29385;BME280;16367;48.736;9.218;2023-04-03T01:17:28;-23249.16;;;2.55;97.25
29385;BME280;16367;48.736;9.218;2023-04-03T01:19:31;-23249.31;;;2.56;97.97
29385;BME280;16367;48.736;9.218;2023-04-03T01:21:54;-23248.69;;;2.54;97.60
29385;BME280;16367;48.736;9.218;2023-04-03T01:24:12;-23248.84;;;2.54;97.19
29385;BME280;16367;48.736;9.218;2023-04-03T01:26:19;-23248.22;;;2.52;96.47
29385;BME280;16367;48.736;9.218;2023-04-03T01:28:25;-23252.03;;;2.64;96.72
29385;BME280;16367;48.736;9.218;2023-04-03T01:30:32;-23249.63;;;2.57;96.88
29385;BME280;16367;48.736;9.218;2023-04-03T01:32:37;-23249.97;;;2.58;97.10
29385;BME280;16367;48.736;9.218;2023-04-03T01:34:40;-23249.31;;;2.56;96.52
29385;BME280;16367;48.736;9.218;2023-04-03T01:36:42;-23249.78;;;2.57;96.80
29385;BME280;16367;48.736;9.218;2023-04-03T01:38:45;-23247.09;;;2.49;97.01
29385;BME280;16367;48.736;9.218;2023-04-03T01:40:48;-23246.44;;;2.47;96.83
29385;BME280;16367;48.736;9.218;2023-04-03T01:42:50;-23247.25;;;2.49;97.11
29385;BME280;16367;48.736;9.218;2023-04-03T01:44:53;-23243.91;;;2.39;97.42
29385;BME280;16367;48.736;9.218;2023-04-03T01:46:56;-23246.44;;;2.47;96.72
29385;BME280;16367;48.736;9.218;2023-04-03T01:49:00;-23244.53;;;2.41;97.17
29385;BME280;16367;48.736;9.218;2023-04-03T01:51:03;-23244.53;;;2.41;98.01
29385;BME280;16367;48.736;9.218;2023-04-03T01:53:06;-23246.78;;;2.48;97.41
29385;BME280;16367;48.736;9.218;2023-04-03T01:55:09;-23245.50;;;2.44;98.08
29385;BME280;16367;48.736;9.218;2023-04-03T01:57:11;-23246.44;;;2.47;97.39
29385;BME280;16367;48.736;9.218;2023-04-03T01:59:15;-23246.78;;;2.48;96.13
29385;BME280;16367;48.736;9.218;2023-04-03T02:01:19;-23249.63;;;2.57;95.86
29385;BME280;16367;48.736;9.218;2023-04-03T02:03:22;-23251.88;;;2.64;95.26
29385;BME280;16367;48.736;9.218;2023-04-03T02:05:26;-23252.19;;;2.65;94.61
29385;BME280;16367;48.736;9.218;2023-04-03T02:07:29;-23247.09;;;2.49;94.82
29385;BME280;16367;48.736;9.218;2023-04-03T02:09:32;-23247.72;;;2.51;95.16
29385;BME280;16367;48.736;9.218;2023-04-03T02:11:35;-23246.13;;;2.46;95.85
29385;BME280;16367;48.736;9.218;2023-04-03T02:13:37;-23245.97;;;2.45;95.09
29385;BME280;16367;48.736;9.218;2023-04-03T02:15:40;-23245.81;;;2.45;95.71
29385;BME280;16367;48.736;9.218;2023-04-03T02:17:43;-23245.66;;;2.44;95.06
29385;BME280;16367;48.736;9.218;2023-04-03T02:19:46;-23244.22;;;2.40;94.64
29385;BME280;16367;48.736;9.218;2023-04-03T02:21:50;-23244.22;;;2.40;95.79
29385;BME280;16367;48.736;9.218;2023-04-03T02:23:53;-23245.19;;;2.43;95.58
29385;BME280;16367;48.736;9.218;2023-04-03T02:26:05;-23245.97;;;2.45;95.56
29385;BME280;16367;48.736;9.218;2023-04-03T02:28:08;-23245.97;;;2.45;95.58
29385;BME280;16367;48.736;9.218;2023-04-03T02:30:11;-23246.44;;;2.47;94.84
29385;BME280;16367;48.736;9.218;2023-04-03T02:32:15;-23245.19;;;2.43;94.76
29385;BME280;16367;48.736;9.218;2023-04-03T02:34:18;-23245.97;;;2.45;95.05
29385;BME280;16367;48.736;9.218;2023-04-03T02:36:21;-23245.50;;;2.44;95.00
29385;BME280;16367;48.736;9.218;2023-04-03T02:38:25;-23248.84;;;2.54;94.67
29385;BME280;16367;48.736;9.218;2023-04-03T02:40:28;-23244.06;;;2.39;93.49
29385;BME280;16367;48.736;9.218;2023-04-03T02:42:31;-23245.97;;;2.45;91.88
29385;BME280;16367;48.736;9.218;2023-04-03T02:44:33;-23242.78;;;2.35;92.24
29385;BME280;16367;48.736;9.218;2023-04-03T02:46:36;-23245.00;;;2.42;92.60
29385;BME280;16367;48.736;9.218;2023-04-03T02:48:39;-23242.31;;;2.34;91.97
29385;BME280;16367;48.736;9.218;2023-04-03T02:50:42;-23245.00;;;2.42;91.92
29385;BME280;16367;48.736;9.218;2023-04-03T02:52:44;-23248.69;;;2.54;91.71
29385;BME280;16367;48.736;9.218;2023-04-03T02:54:48;-23244.84;;;2.42;91.05
29385;BME280;16367;48.736;9.218;2023-04-03T02:56:51;-23245.19;;;2.43;91.00
29385;BME280;16367;48.736;9.218;2023-04-03T02:58:54;-23245.66;;;2.44;91.45
29385;BME280;16367;48.736;9.218;2023-04-03T03:00:57;-23243.75;;;2.38;92.61
29385;BME280;16367;48.736;9.218;2023-04-03T03:02:59;-23245.00;;;2.42;93.24
29385;BME280;16367;48.736;9.218;2023-04-03T03:05:03;-23246.78;;;2.48;93.48
29385;BME280;16367;48.736;9.218;2023-04-03T03:07:05;-23245.81;;;2.45;92.24
29385;BME280;16367;48.736;9.218;2023-04-03T03:09:08;-23245.34;;;2.43;93.39
29385;BME280;16367;48.736;9.218;2023-04-03T03:11:12;-23246.44;;;2.47;91.24
29385;BME280;16367;48.736;9.218;2023-04-03T03:13:15;-23247.09;;;2.49;91.25
29385;BME280;16367;48.736;9.218;2023-04-03T03:15:17;-23243.75;;;2.38;91.99
29385;BME280;16367;48.736;9.218;2023-04-03T03:17:20;-23244.84;;;2.42;91.38
29385;BME280;16367;48.736;9.218;2023-04-03T03:19:23;-23244.69;;;2.41;92.30
29385;BME280;16367;48.736;9.218;2023-04-03T03:21:26;-23245.81;;;2.45;92.49
29385;BME280;16367;48.736;9.218;2023-04-03T03:23:30;-23245.81;;;2.45;92.01
29385;BME280;16367;48.736;9.218;2023-04-03T03:25:37;-23247.25;;;2.49;91.22
29385;BME280;16367;48.736;9.218;2023-04-03T03:27:41;-23250.28;;;2.59;91.36
29385;BME280;16367;48.736;9.218;2023-04-03T03:29:44;-23248.03;;;2.52;90.61
29385;BME280;16367;48.736;9.218;2023-04-03T03:31:47;-23244.84;;;2.42;91.53
29385;BME280;16367;48.736;9.218;2023-04-03T03:33:50;-23245.97;;;2.45;90.88
29385;BME280;16367;48.736;9.218;2023-04-03T03:35:53;-23244.84;;;2.42;90.12
29385;BME280;16367;48.736;9.218;2023-04-03T03:37:56;-23249.31;;;2.56;89.89
29385;BME280;16367;48.736;9.218;2023-04-03T03:39:59;-23244.69;;;2.41;90.23
29385;BME280;16367;48.736;9.218;2023-04-03T03:42:02;-23246.44;;;2.47;89.32
29385;BME280;16367;48.736;9.218;2023-04-03T03:44:06;-23246.59;;;2.47;89.87
29385;BME280;16367;48.736;9.218;2023-04-03T03:46:09;-23245.81;;;2.45;89.39
29385;BME280;16367;48.736;9.218;2023-04-03T03:48:12;-23247.09;;;2.49;89.28
29385;BME280;16367;48.736;9.218;2023-04-03T03:50:14;-23249.78;;;2.57;89.18
29385;BME280;16367;48.736;9.218;2023-04-03T03:52:17;-23249.78;;;2.57;88.85
29385;BME280;16367;48.736;9.218;2023-04-03T03:54:20;-23248.38;;;2.53;89.50
29385;BME280;16367;48.736;9.218;2023-04-03T03:56:23;-23247.09;;;2.49;88.76
29385;BME280;16367;48.736;9.218;2023-04-03T03:58:25;-23248.38;;;2.53;88.58
29385;BME280;16367;48.736;9.218;2023-04-03T04:00:29;-23248.53;;;2.53;88.08
29385;BME280;16367;48.736;9.218;2023-04-03T04:02:32;-23249.00;;;2.55;87.66
29385;BME280;16367;48.736;9.218;2023-04-03T04:04:35;-23249.78;;;2.57;87.88
29385;BME280;16367;48.736;9.218;2023-04-03T04:06:38;-23250.91;;;2.61;88.08
29385;BME280;16367;48.736;9.218;2023-04-03T04:08:41;-23253.94;;;2.70;88.44
29385;BME280;16367;48.736;9.218;2023-04-03T04:10:44;-23257.94;;;2.83;87.47
29385;BME280;16367;48.736;9.218;2023-04-03T04:12:47;-23251.72;;;2.63;88.06
29385;BME280;16367;48.736;9.218;2023-04-03T04:14:56;-23249.31;;;2.56;88.38
29385;BME280;16367;48.736;9.218;2023-04-03T04:17:00;-23249.97;;;2.58;88.33
29385;BME280;16367;48.736;9.218;2023-04-03T04:19:04;-23252.03;;;2.64;87.80
29385;BME280;16367;48.736;9.218;2023-04-03T04:21:09;-23255.06;;;2.74;84.64
29385;BME280;16367;48.736;9.218;2023-04-03T04:23:12;-23252.19;;;2.65;83.61
29385;BME280;16367;48.736;9.218;2023-04-03T04:25:14;-23253.47;;;2.69;82.82
29385;BME280;16367;48.736;9.218;2023-04-03T04:27:17;-23254.75;;;2.73;82.07
29385;BME280;16367;48.736;9.218;2023-04-03T04:29:20;-23255.06;;;2.74;81.47
29385;BME280;16367;48.736;9.218;2023-04-03T04:31:22;-23252.81;;;2.67;82.43
29385;BME280;16367;48.736;9.218;2023-04-03T04:33:27;-23251.88;;;2.64;82.39
29385;BME280;16367;48.736;9.218;2023-04-03T04:35:29;-23254.59;;;2.72;82.17
29385;BME280;16367;48.736;9.218;2023-04-03T04:37:32;-23255.06;;;2.74;81.84
29385;BME280;16367;48.736;9.218;2023-04-03T04:39:35;-23252.19;;;2.65;81.74
29385;BME280;16367;48.736;9.218;2023-04-03T04:41:38;-23253.94;;;2.70;82.24
29385;BME280;16367;48.736;9.218;2023-04-03T04:43:40;-23254.59;;;2.72;82.19
29385;BME280;16367;48.736;9.218;2023-04-03T04:45:43;-23253.16;;;2.68;82.65
29385;BME280;16367;48.736;9.218;2023-04-03T04:47:46;-23253.31;;;2.68;82.72
29385;BME280;16367;48.736;9.218;2023-04-03T04:49:50;-23251.41;;;2.62;81.50
29385;BME280;16367;48.736;9.218;2023-04-03T04:51:53;-23249.63;;;2.57;81.32
29385;BME280;16367;48.736;9.218;2023-04-03T04:53:55;-23253.47;;;2.69;79.69
29385;BME280;16367;48.736;9.218;2023-04-03T04:55:58;-23255.06;;;2.74;79.95
29385;BME280;16367;48.736;9.218;2023-04-03T04:58:01;-23256.66;;;2.79;80.33
29385;BME280;16367;48.736;9.218;2023-04-03T05:00:05;-23253.63;;;2.69;80.50
29385;BME280;16367;48.736;9.218;2023-04-03T05:02:08;-23251.88;;;2.64;80.69
29385;BME280;16367;48.736;9.218;2023-04-03T05:04:11;-23254.75;;;2.73;80.71
29385;BME280;16367;48.736;9.218;2023-04-03T05:06:16;-23258.09;;;2.83;80.63
29385;BME280;16367;48.736;9.218;2023-04-03T05:08:18;-23253.16;;;2.68;80.46
29385;BME280;16367;48.736;9.218;2023-04-03T05:10:21;-23252.03;;;2.64;79.98
29385;BME280;16367;48.736;9.218;2023-04-03T05:12:24;-23252.66;;;2.66;80.04
29385;BME280;16367;48.736;9.218;2023-04-03T05:14:26;-23253.16;;;2.68;80.22
29385;BME280;16367;48.736;9.218;2023-04-03T05:16:29;-23254.09;;;2.71;80.87
29385;BME280;16367;48.736;9.218;2023-04-03T05:18:32;-23253.94;;;2.70;81.13
29385;BME280;16367;48.736;9.218;2023-04-03T05:20:35;-23253.63;;;2.69;81.30
29385;BME280;16367;48.736;9.218;2023-04-03T05:22:39;-23250.75;;;2.60;80.90
29385;BME280;16367;48.736;9.218;2023-04-03T05:24:42;-23252.66;;;2.66;80.67
29385;BME280;16367;48.736;9.218;2023-04-03T05:26:45;-23251.41;;;2.62;80.81
29385;BME280;16367;48.736;9.218;2023-04-03T05:28:47;-23251.22;;;2.62;81.01
29385;BME280;16367;48.736;9.218;2023-04-03T05:30:53;-23253.31;;;2.68;79.95
29385;BME280;16367;48.736;9.218;2023-04-03T05:32:58;-23256.34;;;2.78;79.63
29385;BME280;16367;48.736;9.218;2023-04-03T05:35:00;-23257.63;;;2.82;79.60
29385;BME280;16367;48.736;9.218;2023-04-03T05:37:03;-23255.06;;;2.74;78.56
29385;BME280;16367;48.736;9.218;2023-04-03T05:39:08;-23257.44;;;2.81;78.69
29385;BME280;16367;48.736;9.218;2023-04-03T05:41:12;-23255.53;;;2.75;78.42
29385;BME280;16367;48.736;9.218;2023-04-03T05:43:14;-23258.09;;;2.83;78.76
29385;BME280;16367;48.736;9.218;2023-04-03T05:45:17;-23256.00;;;2.77;78.53
29385;BME280;16367;48.736;9.218;2023-04-03T05:47:20;-23258.09;;;2.83;79.42
29385;BME280;16367;48.736;9.218;2023-04-03T05:49:22;-23259.22;;;2.87;79.10
29385;BME280;16367;48.736;9.218;2023-04-03T05:51:29;-23257.94;;;2.83;79.42
29385;BME280;16367;48.736;9.218;2023-04-03T05:53:35;-23255.88;;;2.76;79.52
29385;BME280;16367;48.736;9.218;2023-04-03T05:55:39;-23253.47;;;2.69;80.01
29385;BME280;16367;48.736;9.218;2023-04-03T05:57:42;-23253.78;;;2.70;80.25
29385;BME280;16367;48.736;9.218;2023-04-03T05:59:45;-23256.97;;;2.80;80.34
29385;BME280;16367;48.736;9.218;2023-04-03T06:01:48;-23250.75;;;2.60;80.64
29385;BME280;16367;48.736;9.218;2023-04-03T06:03:51;-23257.13;;;2.80;81.18
29385;BME280;16367;48.736;9.218;2023-04-03T06:05:54;-23258.25;;;2.84;80.65
29385;BME280;16367;48.736;9.218;2023-04-03T06:07:57;-23259.22;;;2.87;81.85
29385;BME280;16367;48.736;9.218;2023-04-03T06:10:00;-23260.81;;;2.92;81.68
29385;BME280;16367;48.736;9.218;2023-04-03T06:12:04;-23264.31;;;3.03;80.18
29385;BME280;16367;48.736;9.218;2023-04-03T06:14:06;-23259.69;;;2.88;81.18
29385;BME280;16367;48.736;9.218;2023-04-03T06:16:09;-23259.22;;;2.87;80.23
29385;BME280;16367;48.736;9.218;2023-04-03T06:18:15;-23263.34;;;3.00;80.87
29385;BME280;16367;48.736;9.218;2023-04-03T06:20:18;-23268.78;;;3.17;81.02
29385;BME280;16367;48.736;9.218;2023-04-03T06:22:21;-23268.78;;;3.17;80.81
29385;BME280;16367;48.736;9.218;2023-04-03T06:24:23;-23266.38;;;3.10;80.52
29385;BME280;16367;48.736;9.218;2023-04-03T06:26:26;-23280.88;;;3.55;78.87
29385;BME280;16367;48.736;9.218;2023-04-03T06:28:31;-23260.81;;;2.92;80.96
29385;BME280;16367;48.736;9.218;2023-04-03T06:30:33;-23267.19;;;3.12;80.84
29385;BME280;16367;48.736;9.218;2023-04-03T06:32:37;-23260.97;;;2.92;80.28
29385;BME280;16367;48.736;9.218;2023-04-03T06:34:39;-23274.19;;;3.34;80.02
29385;BME280;16367;48.736;9.218;2023-04-03T06:36:43;-23265.91;;;3.08;79.78
29385;BME280;16367;48.736;9.218;2023-04-03T06:38:46;-23264.31;;;3.03;80.78
29385;BME280;16367;48.736;9.218;2023-04-03T06:40:49;-23270.38;;;3.22;79.44
29385;BME280;16367;48.736;9.218;2023-04-03T06:42:53;-23271.00;;;3.24;79.88
29385;BME280;16367;48.736;9.218;2023-04-03T06:44:57;-23278.34;;;3.47;78.90
29385;BME280;16367;48.736;9.218;2023-04-03T06:47:01;-23267.19;;;3.12;79.00
29385;BME280;16367;48.736;9.218;2023-04-03T06:49:03;-23258.88;;;2.86;80.40
29385;BME280;16367;48.736;9.218;2023-04-03T06:51:15;-23264.31;;;3.03;80.47
29385;BME280;16367;48.736;9.218;2023-04-03T06:53:19;-23262.72;;;2.98;81.37
29385;BME280;16367;48.736;9.218;2023-04-03T06:55:22;-23262.56;;;2.97;80.74
29385;BME280;16367;48.736;9.218;2023-04-03T06:57:24;-23269.72;;;3.20;79.95
29385;BME280;16367;48.736;9.218;2023-04-03T06:59:27;-23264.00;;;3.02;80.91
29385;BME280;16367;48.736;9.218;2023-04-03T07:01:32;-23265.25;;;3.06;80.83
29385;BME280;16367;48.736;9.218;2023-04-03T07:03:35;-23276.75;;;3.42;80.08
29385;BME280;16367;48.736;9.218;2023-04-03T07:05:38;-23270.69;;;3.23;79.97
29385;BME280;16367;48.736;9.218;2023-04-03T07:07:41;-23267.19;;;3.12;80.72
29385;BME280;16367;48.736;9.218;2023-04-03T07:09:44;-23283.75;;;3.64;80.32
29385;BME280;16367;48.736;9.218;2023-04-03T07:11:48;-23272.91;;;3.30;80.34
29385;BME280;16367;48.736;9.218;2023-04-03T07:13:50;-23278.34;;;3.47;80.08
29385;BME280;16367;48.736;9.218;2023-04-03T07:15:53;-23279.44;;;3.51;79.74
29385;BME280;16367;48.736;9.218;2023-04-03T07:17:57;-23280.72;;;3.55;78.85
29385;BME280;16367;48.736;9.218;2023-04-03T07:20:00;-23280.09;;;3.53;78.83
29385;BME280;16367;48.736;9.218;2023-04-03T07:22:02;-23276.75;;;3.42;79.10
29385;BME280;16367;48.736;9.218;2023-04-03T07:24:05;-23278.97;;;3.49;78.84
29385;BME280;16367;48.736;9.218;2023-04-03T07:26:13;-23281.53;;;3.57;78.55
29385;BME280;16367;48.736;9.218;2023-04-03T07:28:17;-23282.16;;;3.59;78.95
29385;BME280;16367;48.736;9.218;2023-04-03T07:30:20;-23288.06;;;3.78;78.67
29385;BME280;16367;48.736;9.218;2023-04-03T07:32:23;-23288.84;;;3.81;78.23
29385;BME280;16367;48.736;9.218;2023-04-03T07:34:27;-23295.06;;;4.00;77.59
29385;BME280;16367;48.736;9.218;2023-04-03T07:36:30;-23288.22;;;3.78;78.58
29385;BME280;16367;48.736;9.218;2023-04-03T07:38:34;-23282.81;;;3.61;79.43
29385;BME280;16367;48.736;9.218;2023-04-03T07:40:38;-23287.25;;;3.75;78.54
29385;BME280;16367;48.736;9.218;2023-04-03T07:42:41;-23286.31;;;3.72;77.89
29385;BME280;16367;48.736;9.218;2023-04-03T07:44:43;-23279.78;;;3.52;80.03
29385;BME280;16367;48.736;9.218;2023-04-03T07:46:47;-23290.44;;;3.86;79.44
29385;BME280;16367;48.736;9.218;2023-04-03T07:48:49;-23293.78;;;3.96;78.05
29385;BME280;16367;48.736;9.218;2023-04-03T07:50:53;-23289.31;;;3.82;78.17
29385;BME280;16367;48.736;9.218;2023-04-03T07:52:56;-23290.75;;;3.87;79.25
29385;BME280;16367;48.736;9.218;2023-04-03T07:54:59;-23302.38;;;4.23;77.31
29385;BME280;16367;48.736;9.218;2023-04-03T07:57:02;-23298.72;;;4.12;78.14
29385;BME280;16367;48.736;9.218;2023-04-03T07:59:05;-23303.81;;;4.28;77.11
29385;BME280;16367;48.736;9.218;2023-04-03T08:01:08;-23316.41;;;4.68;77.27
29385;BME280;16367;48.736;9.218;2023-04-03T08:03:11;-23313.06;;;4.57;75.94
29385;BME280;16367;48.736;9.218;2023-04-03T08:05:14;-23314.19;;;4.61;75.19
29385;BME280;16367;48.736;9.218;2023-04-03T08:07:18;-23311.78;;;4.53;75.94
29385;BME280;16367;48.736;9.218;2023-04-03T08:09:22;-23310.69;;;4.49;76.02
29385;BME280;16367;48.736;9.218;2023-04-03T08:11:24;-23299.84;;;4.15;76.89
29385;BME280;16367;48.736;9.218;2023-04-03T08:13:29;-23297.13;;;4.07;77.50
29385;BME280;16367;48.736;9.218;2023-04-03T08:15:32;-23303.50;;;4.27;77.31
29385;BME280;16367;48.736;9.218;2023-04-03T08:17:35;-23319.44;;;4.77;76.03
29385;BME280;16367;48.736;9.218;2023-04-03T08:19:39;-23321.97;;;4.85;74.81
29385;BME280;16367;48.736;9.218;2023-04-03T08:21:41;-23321.34;;;4.83;75.04
29385;BME280;16367;48.736;9.218;2023-04-03T08:23:48;-23313.69;;;4.59;75.25
29385;BME280;16367;48.736;9.218;2023-04-03T08:25:51;-23308.44;;;4.42;76.24
29385;BME280;16367;48.736;9.218;2023-04-03T08:27:54;-23311.16;;;4.51;76.03
29385;BME280;16367;48.736;9.218;2023-04-03T08:29:57;-23305.41;;;4.33;76.79
29385;BME280;16367;48.736;9.218;2023-04-03T08:31:59;-23306.53;;;4.36;76.02
29385;BME280;16367;48.736;9.218;2023-04-03T08:34:02;-23313.69;;;4.59;75.65
29385;BME280;16367;48.736;9.218;2023-04-03T08:36:06;-23317.53;;;4.71;75.32
29385;BME280;16367;48.736;9.218;2023-04-03T08:38:10;-23312.59;;;4.56;75.96
29385;BME280;16367;48.736;9.218;2023-04-03T08:40:16;-23328.50;;;5.06;74.65
29385;BME280;16367;48.736;9.218;2023-04-03T08:42:29;-23319.75;;;4.78;74.49
29385;BME280;16367;48.736;9.218;2023-04-03T08:44:38;-23325.47;;;4.96;74.16
29385;BME280;16367;48.736;9.218;2023-04-03T08:46:55;-23314.97;;;4.63;74.50
29385;BME280;16367;48.736;9.218;2023-04-03T08:49:01;-23320.06;;;4.79;73.78
29385;BME280;16367;48.736;9.218;2023-04-03T08:51:08;-23326.75;;;5.00;72.54
29385;BME280;16367;48.736;9.218;2023-04-03T08:53:18;-23335.19;;;5.27;72.20
29385;BME280;16367;48.736;9.218;2023-04-03T08:55:26;-23343.47;;;5.53;70.51
29385;BME280;16367;48.736;9.218;2023-04-03T08:57:31;-23357.00;;;5.96;68.38
29385;BME280;16367;48.736;9.218;2023-04-03T08:59:38;-23340.28;;;5.43;69.27
29385;BME280;16367;48.736;9.218;2023-04-03T09:01:42;-23364.31;;;6.19;68.95
29385;BME280;16367;48.736;9.218;2023-04-03T09:03:45;-23398.97;;;7.29;65.30
29385;BME280;16367;48.736;9.218;2023-04-03T09:05:51;-23410.72;;;7.66;62.41
29385;BME280;16367;48.736;9.218;2023-04-03T09:07:59;-23384.66;;;6.84;63.43
29385;BME280;16367;48.736;9.218;2023-04-03T09:10:03;-23374.63;;;6.52;63.25
29385;BME280;16367;48.736;9.218;2023-04-03T09:12:16;-23371.00;;;6.40;65.21
29385;BME280;16367;48.736;9.218;2023-04-03T09:14:26;-23364.94;;;6.21;67.91
29385;BME280;16367;48.736;9.218;2023-04-03T09:16:39;-23346.81;;;5.64;69.40
29385;BME280;16367;48.736;9.218;2023-04-03T09:18:52;-23346.50;;;5.63;68.24
29385;BME280;16367;48.736;9.218;2023-04-03T09:21:04;-23346.31;;;5.62;68.52
29385;BME280;16367;48.736;9.218;2023-04-03T09:23:17;-23378.13;;;6.63;67.53
29385;BME280;16367;48.736;9.218;2023-04-03T09:25:22;-23357.94;;;5.99;67.57
29385;BME280;16367;48.736;9.218;2023-04-03T09:27:27;-23360.81;;;6.08;68.49
29385;BME280;16367;48.736;9.218;2023-04-03T09:29:30;-23351.59;;;5.79;70.48
29385;BME280;16367;48.736;9.218;2023-04-03T09:31:37;-23344.59;;;5.57;69.25
29385;BME280;16367;48.736;9.218;2023-04-03T09:33:42;-23334.06;;;5.23;70.80
29385;BME280;16367;48.736;9.218;2023-04-03T09:35:45;-23331.38;;;5.15;70.31
29385;BME280;16367;48.736;9.218;2023-04-03T09:37:51;-23343.94;;;5.55;69.60
29385;BME280;16367;48.736;9.218;2023-04-03T09:39:54;-23340.75;;;5.45;69.33
29385;BME280;16367;48.736;9.218;2023-04-03T09:41:59;-23343.31;;;5.53;70.41
29385;BME280;16367;48.736;9.218;2023-04-03T09:44:20;-23335.97;;;5.29;70.29
29385;BME280;16367;48.736;9.218;2023-04-03T09:46:30;-23329.94;;;5.10;70.27
29385;BME280;16367;48.736;9.218;2023-04-03T09:48:33;-23326.59;;;5.00;71.86
29385;BME280;16367;48.736;9.218;2023-04-03T09:50:36;-23326.44;;;4.99;71.60
29385;BME280;16367;48.736;9.218;2023-04-03T09:52:40;-23326.13;;;4.98;71.30
29385;BME280;16367;48.736;9.218;2023-04-03T09:54:44;-23322.63;;;4.87;71.91
29385;BME280;16367;48.736;9.218;2023-04-03T09:56:49;-23325.97;;;4.98;71.96
29385;BME280;16367;48.736;9.218;2023-04-03T09:59:12;-23339.50;;;5.41;70.65
29385;BME280;16367;48.736;9.218;2023-04-03T10:01:23;-23340.13;;;5.43;69.76
29385;BME280;16367;48.736;9.218;2023-04-03T10:03:30;-23345.53;;;5.60;69.72
29385;BME280;16367;48.736;9.218;2023-04-03T10:05:37;-23342.34;;;5.50;71.42
29385;BME280;16367;48.736;9.218;2023-04-03T10:07:40;-23322.31;;;4.86;71.06
29385;BME280;16367;48.736;9.218;2023-04-03T10:09:55;-23327.38;;;5.02;70.33
29385;BME280;16367;48.736;9.218;2023-04-03T10:12:01;-23321.03;;;4.82;70.56
29385;BME280;16367;48.736;9.218;2023-04-03T10:14:16;-23310.50;;;4.49;69.18
29385;BME280;16367;48.736;9.218;2023-04-03T10:16:21;-23322.47;;;4.87;69.01
29385;BME280;16367;48.736;9.218;2023-04-03T10:18:31;-23315.94;;;4.66;68.40
29385;BME280;16367;48.736;9.218;2023-04-03T10:20:39;-23319.28;;;4.77;68.85
29385;BME280;16367;48.736;9.218;2023-04-03T10:22:50;-23324.53;;;4.93;68.91
29385;BME280;16367;48.736;9.218;2023-04-03T10:25:02;-23334.41;;;5.24;67.51
29385;BME280;16367;48.736;9.218;2023-04-03T10:27:10;-23323.91;;;4.91;68.12
29385;BME280;16367;48.736;9.218;2023-04-03T10:29:25;-23334.88;;;5.26;67.68
29385;BME280;16367;48.736;9.218;2023-04-03T10:31:36;-23328.66;;;5.06;67.71
29385;BME280;16367;48.736;9.218;2023-04-03T10:33:48;-23333.75;;;5.22;67.31
29385;BME280;16367;48.736;9.218;2023-04-03T10:36:06;-23322.63;;;4.87;66.90
29385;BME280;16367;48.736;9.218;2023-04-03T10:38:15;-23321.34;;;4.83;67.67
29385;BME280;16367;48.736;9.218;2023-04-03T10:40:26;-23324.69;;;4.94;66.83
29385;BME280;16367;48.736;9.218;2023-04-03T10:42:37;-23327.06;;;5.01;67.84
29385;BME280;16367;48.736;9.218;2023-04-03T10:44:51;-23327.06;;;5.01;67.30
29385;BME280;16367;48.736;9.218;2023-04-03T10:47:03;-23321.97;;;4.85;67.66
29385;BME280;16367;48.736;9.218;2023-04-03T10:49:20;-23323.41;;;4.90;67.30
29385;BME280;16367;48.736;9.218;2023-04-03T10:51:29;-23317.03;;;4.70;66.76
29385;BME280;16367;48.736;9.218;2023-04-03T10:53:39;-23320.72;;;4.81;67.34
29385;BME280;16367;48.736;9.218;2023-04-03T10:55:49;-23319.09;;;4.76;68.01
29385;BME280;16367;48.736;9.218;2023-04-03T10:57:58;-23319.09;;;4.76;67.82
29385;BME280;16367;48.736;9.218;2023-04-03T11:00:05;-23314.81;;;4.63;67.97